AGGM

Munda Airport

Solomon Islands
METAR AGGM 182100Z 00000KT 9999 HZ FEW016 26/23 Q1012
Observed Flight Rules
Aug-18 @ 21:00 UTC (3 hours ago) Visual Flight Rules
Visibility Clouds Conditions
10,000+ meters
  • Few at 1,600' AGL
  • Haze
Temperatures Readings
Current 26°C / 79°F
Dewpoint 23°C / 73°F
Humidity 84%
Altimeter 29.88" Hg
Pressure 1012 hPa
Elevation 6
METAR AGGM 182100Z 00000KT 9999 HZ FEW016 26/23 Q1012
Observed Flight Rules
Aug-18 @ 21:00 UTC
(3 hours ago)
VFR
Clouds
  • Few at 1,600' AGL
Conditions
  • Haze
Temperature Dewpoint
26°C / 79°F 23°C / 73°F
Humidity Altimeter Pressure
84% 29.88" Hg 1012 hPa